Terminal Aerodrome Forecast
Issued by NWS Jacksonville, FL

Home | Current Version | Previous Version | Text Only | Print | Product List | Glossary On
Versions: 1 2 3 4 5 6 7 8 9 10 11 12 13 14 15 16 17 18 19 20 21
000
FTUS42 KJAX 231200 AAC
TAFJAX
TAF AMD
KJAX 231246Z 2313/2412 36006KT 6SM -RA SCT015 OVC025
     FM231300 36007KT P6SM BKN010 OVC020
     FM231400 01010KT P6SM SCT020 BKN030
     FM231600 05012G18KT P6SM VCSH BKN025 OVC050
     FM240200 04010KT P6SM VCSH BKN020 OVC040=

USA.gov is the U.S. government's official web portal to all federal, state and local government web resources and services.